Time;durP1;ratioP1;P1;durP2;ratioP2;P2;SDS_P1;SDS_P2;PMS_P1;PMS_P2;Temp;Humidity;BMP_temperature;BMP_pressure;BME280_temperature;BME280_humidity;BME280_pressure;Samples;Min_cycle;Max_cycle;Signal;HPM_P1;HPM_P2
2022/12/11 00:01:10;;;;;;;0.60;0.60;;;-4.10;99.90;;;;;;5027526;28;20476;-80
2022/12/11 00:03:35;;;;;;;0.60;0.60;;;-4.20;99.90;;;;;;5030087;28;20990;-79
2022/12/11 00:06:05;;;;;;;0.70;0.70;;;-4.20;99.90;;;;;;5030583;28;20447;-79
2022/12/11 00:08:31;;;;;;;0.50;0.50;;;-4.30;99.90;;;;;;5029029;28;20188;-79
2022/12/11 00:10:56;;;;;;;0.60;0.60;;;-4.20;99.90;;;;;;5027975;28;21067;-79
2022/12/11 00:13:22;;;;;;;0.50;0.50;;;-4.10;99.90;;;;;;5025217;28;20182;-79
2022/12/11 00:15:47;;;;;;;0.80;0.80;;;-4.20;99.90;;;;;;5023494;28;20234;-79
2022/12/11 00:18:13;;;;;;;0.60;0.60;;;-4.20;99.90;;;;;;5027775;28;20675;-79
2022/12/11 00:20:39;;;;;;;0.40;0.40;;;-4.20;99.90;;;;;;5024525;28;20190;-79
2022/12/11 00:23:05;;;;;;;0.70;0.70;;;-4.30;99.90;;;;;;5021966;28;20854;-79
2022/12/11 00:25:30;;;;;;;0.57;0.57;;;-4.30;99.90;;;;;;5028323;28;20438;-79
2022/12/11 00:27:56;;;;;;;0.60;0.60;;;-4.40;99.90;;;;;;5025371;28;20621;-80
2022/12/11 00:30:21;;;;;;;0.60;0.60;;;-4.30;99.90;;;;;;5027825;28;20187;-79
2022/12/11 00:32:47;;;;;;;0.70;0.70;;;-4.30;99.90;;;;;;5027309;28;20192;-79
2022/12/11 00:35:12;;;;;;;0.60;0.60;;;-4.50;99.90;;;;;;5025666;28;20272;-79
2022/12/11 00:37:38;;;;;;;0.60;0.60;;;-4.40;99.90;;;;;;5028129;28;20187;-79
2022/12/11 00:40:04;;;;;;;0.60;0.60;;;-4.40;99.90;;;;;;5027375;28;20925;-79
2022/12/11 00:42:29;;;;;;;0.60;0.60;;;-4.30;99.90;;;;;;5026944;28;20191;-79
2022/12/11 00:44:55;;;;;;;0.50;0.50;;;-4.30;99.90;;;;;;5024883;28;20806;-79
2022/12/11 00:47:20;;;;;;;0.67;0.67;;;-4.40;99.90;;;;;;5026454;28;20188;-79
2022/12/11 00:49:46;;;;;;;0.40;0.40;;;-4.50;99.90;;;;;;5024313;28;20563;-79
2022/12/11 00:52:11;;;;;;;0.50;0.50;;;-4.60;99.90;;;;;;5027935;28;20191;-79
2022/12/11 00:54:37;;;;;;;0.60;0.60;;;-4.70;99.90;;;;;;5028463;28;20314;-79
2022/12/11 00:57:02;;;;;;;0.80;0.80;;;-4.80;99.90;;;;;;5021926;28;20649;-79
2022/12/11 00:59:28;;;;;;;0.67;0.67;;;-4.80;99.90;;;;;;5014770;28;20187;-79
2022/12/11 01:01:53;;;;;;;0.70;0.70;;;-4.80;99.90;;;;;;5027707;28;20792;-79
2022/12/11 01:04:19;;;;;;;0.70;0.70;;;-4.80;99.90;;;;;;5028640;28;20200;-79
2022/12/11 01:06:44;;;;;;;0.57;0.57;;;-4.80;99.90;;;;;;5028468;28;20223;-79
2022/12/11 01:11:54;;;;;;;0.70;0.70;;;-4.80;99.90;;;;;;5030135;28;20202;-79
2022/12/11 01:14:19;;;;;;;0.80;0.80;;;-4.90;99.90;;;;;;5026500;28;20865;-79
2022/12/11 01:16:44;;;;;;;0.70;0.70;;;-4.90;99.90;;;;;;5026969;28;20248;-79
2022/12/11 01:19:10;;;;;;;0.50;0.50;;;-4.90;99.90;;;;;;5025118;28;20274;-79
2022/12/11 01:21:35;;;;;;;0.60;0.60;;;-4.70;99.90;;;;;;5027854;28;20226;-79
2022/12/11 01:24:01;;;;;;;0.60;0.60;;;-4.70;99.90;;;;;;5025232;28;20200;-79
2022/12/11 01:26:26;;;;;;;0.60;0.60;;;-4.70;99.90;;;;;;5028685;28;20718;-79
2022/12/11 01:28:52;;;;;;;0.63;0.63;;;-4.70;99.90;;;;;;5029567;28;20310;-79
2022/12/11 01:31:19;;;;;;;0.60;0.60;;;-4.70;99.90;;;;;;5027120;28;20187;-79
2022/12/11 01:33:44;;;;;;;0.70;0.70;;;-4.80;99.90;;;;;;5027453;28;20678;-79
2022/12/11 01:36:16;;;;;;;0.70;0.70;;;-4.80;99.90;;;;;;5028774;28;20517;-79
2022/12/11 01:38:42;;;;;;;0.60;0.60;;;-4.80;99.90;;;;;;5028211;28;20229;-79
2022/12/11 01:41:08;;;;;;;0.80;0.80;;;-4.80;99.90;;;;;;5023663;28;20454;-79
2022/12/11 01:43:54;;;;;;;0.67;0.67;;;-4.80;99.90;;;;;;5028029;28;20198;-79
2022/12/11 01:46:19;;;;;;;0.60;0.60;;;-4.70;99.90;;;;;;5026560;28;20449;-79
2022/12/11 01:48:45;;;;;;;0.70;0.70;;;-4.80;99.90;;;;;;5026542;28;20961;-79
2022/12/11 01:51:10;;;;;;;0.50;0.50;;;-4.80;99.90;;;;;;5027665;28;20188;-79
2022/12/11 01:53:40;;;;;;;0.60;0.60;;;-4.80;99.90;;;;;;5026664;28;20585;-79
2022/12/11 01:56:07;;;;;;;0.67;0.67;;;-4.90;99.90;;;;;;5022280;28;20250;-79
2022/12/11 01:58:37;;;;;;;0.70;0.70;;;-5.00;99.90;;;;;;5024619;28;20442;-79
2022/12/11 02:01:03;;;;;;;0.57;0.57;;;-5.00;99.90;;;;;;5026149;28;20736;-79
2022/12/11 02:03:29;;;;;;;0.80;0.80;;;-4.90;99.90;;;;;;5021936;28;20438;-79
2022/12/11 02:05:58;;;;;;;0.80;0.80;;;-5.00;99.90;;;;;;5028999;28;20457;-79
2022/12/11 02:08:24;;;;;;;0.70;0.70;;;-4.90;99.90;;;;;;5028466;28;20194;-79
2022/12/11 02:11:14;;;;;;;0.73;0.73;;;-4.90;99.90;;;;;;5026254;28;20850;-79
2022/12/11 02:13:56;;;;;;;0.60;0.60;;;-4.90;99.90;;;;;;5011413;28;20172;-79
2022/12/11 02:16:49;;;;;;;0.80;0.80;;;-4.90;99.90;;;;;;5027915;28;20469;-80
2022/12/11 02:19:37;;;;;;;0.80;0.80;;;-4.90;99.90;;;;;;5026422;28;20484;-79
2022/12/11 02:22:07;;;;;;;0.70;0.70;;;-4.90;99.90;;;;;;5029255;28;20449;-80
2022/12/11 02:25:09;;;;;;;0.80;0.80;;;-5.00;99.90;;;;;;5021091;28;20451;-79
2022/12/11 02:27:55;;;;;;;0.60;0.60;;;-5.10;99.90;;;;;;5003277;28;20446;-80
2022/12/11 02:30:21;;;;;;;0.70;0.70;;;-5.00;99.90;;;;;;5023909;28;20446;-79
2022/12/11 02:32:55;;;;;;;0.63;0.63;;;-4.90;99.90;;;;;;5029267;28;20482;-80
2022/12/11 02:35:30;;;;;;;0.53;0.53;;;-4.90;99.90;;;;;;5024957;28;20322;-80
2022/12/11 02:38:17;;;;;;;0.50;0.50;;;-5.10;99.90;;;;;;5030404;28;20424;-80
2022/12/11 02:40:46;;;;;;;0.60;0.60;;;-4.90;99.90;;;;;;5027440;28;20454;-80
2022/12/11 02:43:15;;;;;;;0.60;0.60;;;-5.00;99.90;;;;;;5023896;28;20516;-80
2022/12/11 02:45:42;;;;;;;0.67;0.67;;;-5.10;99.90;;;;;;5024704;28;20458;-79
2022/12/11 02:48:10;;;;;;;0.77;0.77;;;-5.10;99.90;;;;;;5015668;28;20558;-80
2022/12/11 02:50:41;;;;;;;0.70;0.70;;;-5.20;99.90;;;;;;5019977;28;20450;-80
2022/12/11 02:53:09;;;;;;;0.80;0.80;;;-5.30;99.90;;;;;;5027613;28;20867;-80
2022/12/11 02:55:37;;;;;;;0.70;0.70;;;-5.30;99.90;;;;;;5019124;28;20486;-80
2022/12/11 02:58:22;;;;;;;0.70;0.70;;;-5.30;99.90;;;;;;5022769;28;20442;-80
2022/12/11 03:00:47;;;;;;;0.80;0.80;;;-5.40;99.90;;;;;;5019937;28;20953;-80
2022/12/11 03:03:13;;;;;;;0.83;0.83;;;-5.30;99.90;;;;;;5026401;28;20441;-80
2022/12/11 03:05:40;;;;;;;0.50;0.50;;;-5.40;99.90;;;;;;5028193;28;20187;-80
2022/12/11 03:08:09;;;;;;;0.60;0.60;;;-5.40;99.90;;;;;;5025541;28;20415;-79
2022/12/11 03:10:34;;;;;;;0.73;0.73;;;-5.40;99.90;;;;;;5027251;28;20534;-80
2022/12/11 03:13:01;;;;;;;0.70;0.70;;;-5.40;99.90;;;;;;5025796;28;20540;-80
2022/12/11 03:15:51;;;;;;;0.60;0.60;;;-5.20;99.90;;;;;;5019540;28;20235;-80
2022/12/11 03:18:30;;;;;;;0.60;0.60;;;-5.10;99.90;;;;;;5013104;28;20454;-80
2022/12/11 03:21:39;;;;;;;0.70;0.70;;;-5.00;99.90;;;;;;5023204;28;20457;-80
2022/12/11 03:24:14;;;;;;;0.70;0.70;;;-4.90;99.90;;;;;;5015779;28;20438;-80
2022/12/11 03:26:45;;;;;;;0.60;0.60;;;-4.80;99.90;;;;;;5022853;28;20454;-80
2022/12/11 03:29:20;;;;;;;0.70;0.70;;;-4.70;99.90;;;;;;5025632;28;20442;-80
2022/12/11 03:31:57;;;;;;;0.60;0.60;;;-4.70;99.90;;;;;;5024642;28;20430;-80
2022/12/11 03:34:43;;;;;;;0.70;0.70;;;-4.60;99.90;;;;;;5025726;28;20469;-80
2022/12/11 03:37:11;;;;;;;0.60;0.60;;;-4.50;99.90;;;;;;5026308;28;20508;-80
2022/12/11 03:39:40;;;;;;;0.67;0.67;;;-4.50;99.90;;;;;;5024277;28;20438;-80
2022/12/11 03:42:09;;;;;;;0.63;0.63;;;-4.40;99.90;;;;;;5027891;28;20454;-80
2022/12/11 03:44:35;;;;;;;0.60;0.60;;;-4.30;99.90;;;;;;5015353;28;20438;-80
2022/12/11 03:47:04;;;;;;;0.50;0.50;;;-4.30;99.90;;;;;;5023496;28;20442;-80
2022/12/11 03:49:35;;;;;;;0.60;0.60;;;-4.20;99.90;;;;;;5023090;28;20446;-81
2022/12/11 03:52:02;;;;;;;0.60;0.60;;;-4.30;99.90;;;;;;5024487;28;20556;-81
2022/12/11 03:54:28;;;;;;;0.60;0.60;;;-4.30;99.90;;;;;;5025461;28;20481;-80
2022/12/11 03:56:56;;;;;;;0.50;0.50;;;-4.20;99.90;;;;;;5023609;28;20456;-80
2022/12/11 03:59:22;;;;;;;0.50;0.50;;;-4.30;99.90;;;;;;5023969;28;20492;-80
2022/12/11 04:01:49;;;;;;;0.40;0.40;;;-4.30;99.90;;;;;;5018249;28;20458;-80
2022/12/11 04:04:14;;;;;;;0.70;0.70;;;-4.20;99.90;;;;;;5023627;28;20271;-80
2022/12/11 04:06:40;;;;;;;0.50;0.50;;;-4.10;99.90;;;;;;5022695;28;20574;-80
2022/12/11 04:09:05;;;;;;;0.50;0.50;;;-4.10;99.90;;;;;;5026601;28;20191;-81
2022/12/11 04:11:33;;;;;;;0.53;0.53;;;-4.00;99.90;;;;;;5025927;28;20191;-80
2022/12/11 04:16:57;;;;;;;0.70;0.70;;;-4.00;99.90;;;;;;5025905;28;20489;-81
2022/12/11 04:24:54;;;;;;;0.50;0.50;;;-3.90;99.90;;;;;;5021618;28;20523;-81
2022/12/11 04:30:08;;;;;;;0.50;0.50;;;-3.80;99.90;;;;;;5026170;28;20238;-81
2022/12/11 04:32:33;;;;;;;0.60;0.60;;;-3.90;99.90;;;;;;5030297;28;20489;-81
2022/12/11 04:34:59;;;;;;;0.60;0.60;;;-3.80;99.90;;;;;;5029274;28;20890;-81
2022/12/11 04:37:26;;;;;;;0.50;0.50;;;-4.00;99.90;;;;;;5030511;28;20722;-81
2022/12/11 04:39:52;;;;;;;0.70;0.70;;;-4.30;99.90;;;;;;5027138;28;20588;-80
2022/12/11 04:42:17;;;;;;;0.60;0.60;;;-4.30;99.90;;;;;;5029417;28;20450;-81
2022/12/11 04:44:43;;;;;;;0.70;0.70;;;-4.30;99.90;;;;;;5029090;28;20731;-81
2022/12/11 04:47:09;;;;;;;0.50;0.50;;;-4.40;99.90;;;;;;5025303;28;20188;-81
2022/12/11 04:49:34;;;;;;;0.73;0.73;;;-4.50;99.90;;;;;;5026387;28;20200;-81
2022/12/11 04:51:59;;;;;;;0.70;0.70;;;-4.60;99.90;;;;;;5029589;28;20713;-81
2022/12/11 04:54:25;;;;;;;0.60;0.60;;;-4.80;99.90;;;;;;5026113;28;20267;-81
2022/12/11 04:56:50;;;;;;;0.40;0.40;;;-4.90;99.90;;;;;;5026781;28;20651;-81
2022/12/11 04:59:16;;;;;;;0.60;0.60;;;-4.80;99.90;;;;;;5045156;28;20291;-81
2022/12/11 05:01:41;;;;;;;0.70;0.70;;;-4.80;99.90;;;;;;5025848;28;20237;-80
2022/12/11 05:04:07;;;;;;;0.90;0.90;;;-5.00;99.90;;;;;;5020212;28;20937;-81
2022/12/11 05:06:32;;;;;;;0.77;0.77;;;-5.00;99.90;;;;;;5022121;28;20203;-81
2022/12/11 05:08:58;;;;;;;0.60;0.60;;;-4.80;99.90;;;;;;5028437;28;20195;-81
2022/12/11 05:11:23;;;;;;;0.80;0.80;;;-4.90;99.90;;;;;;5028664;28;20214;-81
2022/12/11 05:13:49;;;;;;;0.40;0.40;;;-5.10;99.90;;;;;;5029054;28;20206;-81
2022/12/11 05:16:16;;;;;;;0.50;0.50;;;-5.00;99.90;;;;;;5025094;28;20215;-81
2022/12/11 05:18:42;;;;;;;0.70;0.70;;;-4.90;99.90;;;;;;5024134;28;20267;-81
2022/12/11 05:21:10;;;;;;;0.70;0.70;;;-5.00;99.90;;;;;;5029640;28;21045;-81
2022/12/11 05:23:36;;;;;;;0.70;0.70;;;-5.10;99.90;;;;;;5028963;28;20922;-81
2022/12/11 05:26:06;;;;;;;0.90;0.90;;;-4.90;99.90;;;;;;5021127;28;20871;-81
2022/12/11 05:28:34;;;;;;;0.70;0.70;;;-5.00;99.90;;;;;;5026805;28;20438;-81
2022/12/11 05:31:12;;;;;;;0.90;0.90;;;-5.10;99.90;;;;;;5024747;28;20449;-81
2022/12/11 05:33:37;;;;;;;0.63;0.63;;;-5.10;99.90;;;;;;5051645;28;20504;-81
2022/12/11 05:36:03;;;;;;;0.70;0.70;;;-5.30;99.90;;;;;;5024935;28;20485;-81
2022/12/11 05:38:28;;;;;;;0.60;0.60;;;-5.30;99.90;;;;;;5027117;28;20183;-82
2022/12/11 05:41:01;;;;;;;0.90;0.90;;;-5.30;99.90;;;;;;5028074;28;20195;-82
2022/12/11 05:43:29;;;;;;;0.67;0.67;;;-5.30;99.90;;;;;;5025475;28;20219;-82
2022/12/11 05:45:55;;;;;;;0.77;0.77;;;-5.30;99.90;;;;;;5024591;28;21008;-81
2022/12/11 05:48:21;;;;;;;0.70;0.70;;;-5.30;99.90;;;;;;5023954;28;20504;-81
2022/12/11 05:51:00;;;;;;;0.70;0.70;;;-5.40;99.90;;;;;;5022689;28;20454;-81
2022/12/11 05:53:26;;;;;;;0.60;0.60;;;-5.50;99.90;;;;;;5021577;28;20199;-81
2022/12/11 05:55:52;;;;;;;0.80;0.80;;;-5.50;99.90;;;;;;5029228;28;20532;-81
2022/12/11 05:58:19;;;;;;;0.67;0.67;;;-5.50;99.90;;;;;;5029040;28;20470;-82
2022/12/11 06:00:45;;;;;;;0.63;0.63;;;-5.60;99.90;;;;;;5029489;28;20199;-81
2022/12/11 06:03:10;;;;;;;0.70;0.70;;;-5.70;99.90;;;;;;5023050;28;20492;-81
2022/12/11 06:05:40;;;;;;;0.50;0.50;;;-5.60;99.90;;;;;;5024388;28;20847;-82
2022/12/11 06:08:06;;;;;;;0.70;0.70;;;-5.50;99.90;;;;;;5029240;28;20708;-81
2022/12/11 06:10:31;;;;;;;0.70;0.70;;;-5.50;99.90;;;;;;5028175;28;20458;-81
2022/12/11 06:12:57;;;;;;;0.70;0.70;;;-5.40;99.90;;;;;;5028139;28;20712;-81
2022/12/11 06:15:22;;;;;;;0.60;0.60;;;-5.30;99.90;;;;;;5029231;28;20227;-81
2022/12/11 06:17:48;;;;;;;0.50;0.50;;;-5.30;99.90;;;;;;5028434;28;20199;-81
2022/12/11 06:20:13;;;;;;;0.70;0.70;;;-5.50;99.90;;;;;;5027042;28;20190;-81
2022/12/11 06:22:39;;;;;;;0.80;0.80;;;-5.70;99.90;;;;;;5028214;28;20183;-81
2022/12/11 06:25:05;;;;;;;0.70;0.70;;;-5.70;99.90;;;;;;5027713;28;20179;-81
2022/12/11 06:27:30;;;;;;;0.80;0.80;;;-5.60;99.90;;;;;;5019380;28;20183;-81
2022/12/11 06:29:57;;;;;;;0.80;0.80;;;-5.50;99.90;;;;;;5025594;28;20458;-82
2022/12/11 06:32:23;;;;;;;0.90;0.90;;;-5.50;99.90;;;;;;5022453;28;20703;-82
2022/12/11 06:34:48;;;;;;;0.70;0.70;;;-5.40;99.90;;;;;;5026333;28;20486;-81
2022/12/11 06:37:14;;;;;;;0.80;0.80;;;-5.40;99.90;;;;;;5024519;28;20569;-81
2022/12/11 06:39:39;;;;;;;0.90;0.90;;;-5.70;99.90;;;;;;5027569;28;20206;-81
2022/12/11 06:42:05;;;;;;;0.70;0.70;;;-5.80;99.90;;;;;;5025350;28;20639;-81
2022/12/11 06:44:30;;;;;;;0.60;0.60;;;-5.80;99.90;;;;;;5026067;28;20188;-81
2022/12/11 06:46:56;;;;;;;0.63;0.63;;;-5.80;99.90;;;;;;5025204;28;20188;-81
2022/12/11 06:49:21;;;;;;;0.67;0.67;;;-5.80;99.90;;;;;;5026278;28;20201;-81
2022/12/11 06:51:47;;;;;;;0.73;0.73;;;-5.70;99.90;;;;;;5023650;28;20267;-80
2022/12/11 06:54:12;;;;;;;0.50;0.50;;;-5.80;99.90;;;;;;5021079;28;20224;-80
2022/12/11 06:56:38;;;;;;;0.80;0.80;;;-5.80;99.90;;;;;;5027853;28;20691;-80
2022/12/11 06:59:03;;;;;;;0.90;0.90;;;-5.90;99.90;;;;;;5026442;28;20192;-80
2022/12/11 07:01:29;;;;;;;0.67;0.67;;;-5.90;99.90;;;;;;5025227;28;20200;-80
2022/12/11 07:03:56;;;;;;;0.70;0.70;;;-6.00;99.90;;;;;;5023225;28;20413;-80
2022/12/11 07:06:22;;;;;;;0.67;0.67;;;-5.90;99.90;;;;;;5025871;28;20183;-80
2022/12/11 07:08:47;;;;;;;0.73;0.73;;;-6.00;99.90;;;;;;5029418;28;20914;-80
2022/12/11 07:11:14;;;;;;;0.80;0.80;;;-6.10;99.90;;;;;;5028807;28;20466;-79
2022/12/11 07:13:41;;;;;;;0.70;0.70;;;-6.20;99.90;;;;;;5027237;28;20191;-79
2022/12/11 07:16:10;;;;;;;0.70;0.70;;;-6.10;99.90;;;;;;5025739;28;21021;-80
2022/12/11 07:18:37;;;;;;;0.70;0.70;;;-6.10;99.90;;;;;;5024096;28;20450;-79
2022/12/11 07:21:03;;;;;;;0.80;0.80;;;-6.10;99.90;;;;;;5020371;28;20446;-79
2022/12/11 07:23:29;;;;;;;0.90;0.90;;;-5.90;99.90;;;;;;5026418;28;20449;-79
2022/12/11 07:25:55;;;;;;;0.60;0.60;;;-5.80;99.90;;;;;;5021918;28;21130;-79
2022/12/11 07:28:21;;;;;;;0.70;0.70;;;-5.80;99.90;;;;;;5022056;28;20249;-80
2022/12/11 07:30:47;;;;;;;0.90;0.90;;;-5.80;99.90;;;;;;5025866;28;20573;-79
2022/12/11 07:33:12;;;;;;;0.80;0.80;;;-5.90;99.90;;;;;;5018284;28;20596;-78
2022/12/11 07:35:38;;;;;;;0.63;0.63;;;-6.00;99.90;;;;;;5027112;28;20298;-80
2022/12/11 07:38:03;;;;;;;0.80;0.80;;;-6.00;99.90;;;;;;5021038;28;20179;-79
2022/12/11 07:40:29;;;;;;;0.90;0.90;;;-6.10;99.90;;;;;;5028681;28;20203;-79
2022/12/11 07:42:54;;;;;;;0.90;0.90;;;-6.00;99.90;;;;;;5027848;28;20550;-78
2022/12/11 07:45:20;;;;;;;0.80;0.80;;;-6.00;99.90;;;;;;5021901;28;20238;-79
2022/12/11 07:47:45;;;;;;;0.70;0.70;;;-6.10;99.90;;;;;;5025323;28;20707;-80
2022/12/11 07:50:11;;;;;;;0.90;0.90;;;-6.00;99.90;;;;;;5023961;28;20180;-80
2022/12/11 07:52:36;;;;;;;0.80;0.80;;;-6.00;99.90;;;;;;5007239;28;20188;-79
2022/12/11 07:55:02;;;;;;;0.80;0.80;;;-6.00;99.90;;;;;;5011312;28;20246;-78
2022/12/11 07:57:28;;;;;;;0.73;0.73;;;-5.90;99.90;;;;;;5023422;28;20197;-79
2022/12/11 07:59:54;;;;;;;0.80;0.80;;;-5.90;99.90;;;;;;5026050;28;20947;-78
2022/12/11 08:02:20;;;;;;;0.77;0.77;;;-5.90;99.90;;;;;;5025142;28;20180;-79
2022/12/11 08:04:46;;;;;;;0.87;0.87;;;-5.90;99.90;;;;;;5032194;28;20438;-79
2022/12/11 08:07:11;;;;;;;0.70;0.70;;;-5.90;99.90;;;;;;5028478;28;20445;-79
2022/12/11 08:09:37;;;;;;;0.80;0.80;;;-6.00;99.90;;;;;;5029686;28;20199;-79
2022/12/11 08:12:03;;;;;;;0.63;0.63;;;-5.80;99.90;;;;;;5028663;28;20195;-80
2022/12/11 08:14:28;;;;;;;0.77;0.77;;;-5.80;99.90;;;;;;5031831;28;20183;-79
2022/12/11 08:16:54;;;;;;;0.77;0.77;;;-5.80;99.90;;;;;;5028857;28;20271;-79
2022/12/11 08:19:20;;;;;;;0.60;0.60;;;-5.80;99.90;;;;;;5029690;28;20191;-79
2022/12/11 08:21:45;;;;;;;0.80;0.80;;;-5.70;99.90;;;;;;5026336;28;20195;-78
2022/12/11 08:24:11;;;;;;;0.70;0.70;;;-5.60;99.90;;;;;;5026175;28;20179;-79
2022/12/11 08:26:36;;;;;;;0.70;0.70;;;-5.70;99.90;;;;;;5030047;28;20210;-79
2022/12/11 08:29:02;;;;;;;0.60;0.60;;;-5.60;99.90;;;;;;5031447;28;20245;-78
2022/12/11 08:31:28;;;;;;;0.77;0.77;;;-5.50;99.90;;;;;;5029511;28;20187;-79
2022/12/11 08:33:55;;;;;;;0.70;0.70;;;-5.40;99.90;;;;;;5038447;28;20287;-78
2022/12/11 08:36:21;;;;;;;0.70;0.70;;;-5.40;99.90;;;;;;5024379;28;20224;-78
2022/12/11 08:38:48;;;;;;;0.60;0.60;;;-5.30;99.90;;;;;;5025348;28;20460;-79
2022/12/11 08:41:16;;;;;;;0.80;0.80;;;-5.10;99.90;;;;;;5023588;28;20949;-79
2022/12/11 08:43:42;;;;;;;0.60;0.60;;;-4.90;99.90;;;;;;5030050;28;20528;-80
2022/12/11 08:46:09;;;;;;;0.60;0.60;;;-4.70;99.90;;;;;;5029386;28;20546;-80
2022/12/11 08:48:36;;;;;;;0.90;0.90;;;-4.70;99.90;;;;;;5031279;28;20570;-79
2022/12/11 08:51:03;;;;;;;0.60;0.60;;;-4.40;99.90;;;;;;5029243;28;20469;-79
2022/12/11 08:53:30;;;;;;;0.67;0.67;;;-4.20;99.90;;;;;;5025341;28;20561;-78
2022/12/11 08:56:03;;;;;;;0.60;0.60;;;-4.10;99.90;;;;;;5027452;28;20486;-79
2022/12/11 08:58:28;;;;;;;0.70;0.70;;;-3.90;99.90;;;;;;5030376;28;20453;-79
2022/12/11 09:00:54;;;;;;;0.40;0.40;;;-3.80;99.90;;;;;;5026877;28;20446;-78
2022/12/11 09:03:20;;;;;;;0.60;0.60;;;-3.90;99.90;;;;;;5032083;28;21022;-78
2022/12/11 09:05:45;;;;;;;0.70;0.70;;;-3.90;99.90;;;;;;5028550;28;20450;-79
2022/12/11 09:08:11;;;;;;;0.70;0.70;;;-3.70;99.90;;;;;;5023663;28;20706;-80
2022/12/11 09:10:36;;;;;;;0.40;0.40;;;-3.50;99.90;;;;;;5023548;28;20190;-80
2022/12/11 09:13:02;;;;;;;0.70;0.70;;;-3.50;99.90;;;;;;5029609;28;20190;-80
2022/12/11 09:15:27;;;;;;;0.70;0.70;;;-3.50;99.90;;;;;;5030760;28;20223;-80
2022/12/11 09:17:53;;;;;;;0.60;0.60;;;-3.30;99.90;;;;;;5030690;28;20660;-80
2022/12/11 09:20:18;;;;;;;0.70;0.70;;;-3.10;99.90;;;;;;5030982;28;20203;-79
2022/12/11 09:22:44;;;;;;;0.53;0.53;;;-3.00;99.90;;;;;;5028994;28;20566;-79
2022/12/11 09:25:09;;;;;;;0.60;0.60;;;-2.90;99.90;;;;;;5028241;28;20270;-79
2022/12/11 09:27:35;;;;;;;0.50;0.50;;;-2.80;99.90;;;;;;5030313;28;20180;-79
2022/12/11 09:30:00;;;;;;;0.70;0.70;;;-2.50;99.90;;;;;;5029655;28;20188;-79
2022/12/11 09:32:26;;;;;;;0.67;0.67;;;-2.20;99.90;;;;;;5031980;28;20269;-79
2022/12/11 09:34:51;;;;;;;0.50;0.50;;;-2.20;99.90;;;;;;5031449;28;20333;-79
2022/12/11 09:37:17;;;;;;;0.53;0.53;;;-2.10;99.90;;;;;;5031525;28;20576;-79
2022/12/11 09:39:42;;;;;;;0.60;0.60;;;-1.90;99.90;;;;;;5031337;28;20672;-79
2022/12/11 09:42:08;;;;;;;0.50;0.50;;;-1.60;99.90;;;;;;5031373;28;20586;-79
2022/12/11 09:44:37;;;;;;;0.50;0.50;;;-1.40;99.90;;;;;;5025833;28;20662;-79
2022/12/11 09:47:15;;;;;;;0.50;0.50;;;-1.20;99.90;;;;;;5023303;28;20195;-79
2022/12/11 09:49:43;;;;;;;0.40;0.40;;;-1.30;99.90;;;;;;5029419;28;20472;-79
2022/12/11 09:52:17;;;;;;;0.50;0.50;;;-0.50;99.90;;;;;;5028095;28;20449;-79
2022/12/11 09:54:53;;;;;;;0.40;0.40;;;-0.10;99.90;;;;;;5025817;28;20551;-79
2022/12/11 09:57:45;;;;;;;0.50;0.50;;;-0.60;99.90;;;;;;5028702;28;20437;-79
2022/12/11 10:00:18;;;;;;;0.50;0.50;;;-1.10;99.90;;;;;;5027167;28;20482;-78
2022/12/11 10:03:08;;;;;;;0.50;0.50;;;-1.60;99.90;;;;;;5028432;28;20500;-80
2022/12/11 10:05:50;;;;;;;0.50;0.50;;;-1.80;99.90;;;;;;5020688;28;20430;-79
2022/12/11 10:08:33;;;;;;;0.47;0.47;;;-1.60;99.90;;;;;;5033509;28;20444;-80
2022/12/11 10:11:22;;;;;;;0.50;0.50;;;-1.40;99.90;;;;;;5023832;28;20452;-81
2022/12/11 10:14:25;;;;;;;0.60;0.60;;;-1.40;99.90;;;;;;5026505;28;20446;-81
2022/12/11 10:17:04;;;;;;;0.60;0.60;;;-1.30;99.90;;;;;;5017364;28;20472;-80
2022/12/11 10:19:31;;;;;;;0.40;0.40;;;-1.30;99.90;;;;;;5026560;28;20655;-80
2022/12/11 10:21:59;;;;;;;0.50;0.50;;;-1.10;99.90;;;;;;5021481;28;20459;-80
2022/12/11 10:24:41;;;;;;;0.40;0.40;;;-0.90;99.90;;;;;;5029284;28;20450;-79
2022/12/11 10:27:19;;;;;;;0.40;0.40;;;-0.80;99.90;;;;;;5018932;28;20451;-79
2022/12/11 10:29:47;;;;;;;0.50;0.50;;;0.20;99.90;;;;;;5024611;28;20441;-78
2022/12/11 10:32:27;;;;;;;0.47;0.47;;;1.60;99.90;;;;;;5025245;28;20539;-79
2022/12/11 10:35:04;;;;;;;0.30;0.30;;;2.10;99.90;;;;;;5028666;28;20587;-79
2022/12/11 10:37:29;;;;;;;0.30;0.30;;;2.10;99.90;;;;;;5024707;28;20470;-79
2022/12/11 10:39:54;;;;;;;0.40;0.40;;;2.80;99.90;;;;;;5028451;28;20446;-79
2022/12/11 10:42:22;;;;;;;0.23;0.23;;;2.60;99.90;;;;;;5027355;28;20310;-79
2022/12/11 10:44:59;;;;;;;0.37;0.37;;;2.00;99.90;;;;;;5025843;28;20185;-79
2022/12/11 10:47:26;;;;;;;0.40;0.40;;;1.70;99.90;;;;;;5028692;28;20485;-79
2022/12/11 10:49:58;;;;;;;0.30;0.30;;;1.10;99.90;;;;;;5019148;28;20500;-79
2022/12/11 10:52:31;;;;;;;0.30;0.30;;;0.80;99.90;;;;;;5027320;28;20866;-78
2022/12/11 10:55:16;;;;;;;0.30;0.30;;;0.50;99.90;;;;;;5027468;28;20490;-78
2022/12/11 10:57:42;;;;;;;0.30;0.30;;;0.40;99.90;;;;;;5014185;28;20462;-78
2022/12/11 11:00:28;;;;;;;0.27;0.27;;;0.60;99.90;;;;;;5019262;28;20446;-79
2022/12/11 11:02:54;;;;;;;0.30;0.30;;;0.40;99.90;;;;;;5009313;28;20496;-78
2022/12/11 11:05:36;;;;;;;0.40;0.40;;;0.40;99.90;;;;;;5016294;28;20959;-79
2022/12/11 11:08:23;;;;;;;0.30;0.30;;;0.40;99.90;;;;;;5040364;28;20270;-78
2022/12/11 11:10:57;;;;;;;0.20;0.20;;;0.30;99.90;;;;;;5026852;28;20955;-78
2022/12/11 11:13:25;;;;;;;0.30;0.30;;;0.60;99.90;;;;;;5023335;28;20445;-78
2022/12/11 11:16:04;;;;;;;0.27;0.27;;;0.80;99.90;;;;;;5024842;28;20496;-78
2022/12/11 11:18:31;;;;;;;0.30;0.30;;;0.90;99.90;;;;;;5026392;28;21060;-78
2022/12/11 11:20:57;;;;;;;0.20;0.20;;;0.90;99.90;;;;;;5025949;28;20454;-78
2022/12/11 11:23:24;;;;;;;0.20;0.20;;;1.10;99.90;;;;;;5025925;28;20441;-78
2022/12/11 11:25:53;;;;;;;0.20;0.20;;;1.40;99.90;;;;;;5025883;28;20806;-78
2022/12/11 11:28:23;;;;;;;0.10;0.10;;;1.70;99.90;;;;;;5027961;28;20460;-77
2022/12/11 11:31:05;;;;;;;0.20;0.20;;;1.90;99.90;;;;;;5029396;28;20456;-77
2022/12/11 11:33:33;;;;;;;0.20;0.20;;;2.00;99.90;;;;;;5016666;28;20442;-77
2022/12/11 11:36:05;;;;;;;0.10;0.10;;;2.10;99.90;;;;;;5027455;28;20482;-77
2022/12/11 11:39:08;;;;;;;0.20;0.20;;;2.30;99.90;;;;;;5030429;28;20537;-76
2022/12/11 11:42:00;;;;;;;0.20;0.20;;;2.70;99.90;;;;;;4982669;28;20439;-77
2022/12/11 11:44:49;;;;;;;0.20;0.20;;;3.40;99.90;;;;;;5025026;28;20438;-77
2022/12/11 11:47:18;;;;;;;0.10;0.10;;;3.80;99.90;;;;;;5031244;28;20456;-78
2022/12/11 11:50:07;;;;;;;0.20;0.20;;;4.20;99.90;;;;;;5031944;28;20460;-77
2022/12/11 11:52:43;;;;;;;0.17;0.17;;;4.50;99.90;;;;;;5028226;28;20770;-77
2022/12/11 11:55:17;;;;;;;0.10;0.10;;;5.20;99.90;;;;;;5026747;28;20477;-77
2022/12/11 11:57:46;;;;;;;0.13;0.13;;;5.80;99.90;;;;;;5030410;28;20487;-77
2022/12/11 12:00:21;;;;;;;0.10;0.10;;;5.60;99.90;;;;;;5043129;28;20812;-77
2022/12/11 12:02:58;;;;;;;0.10;0.10;;;4.90;99.90;;;;;;5018464;28;20452;-77
2022/12/11 12:05:32;;;;;;;0.10;0.10;;;4.80;99.90;;;;;;5026645;28;20435;-77
2022/12/11 12:08:13;;;;;;;0.10;0.10;;;5.00;99.90;;;;;;5024326;28;20438;-77
2022/12/11 12:10:39;;;;;;;0.10;0.10;;;5.50;99.90;;;;;;5023584;28;20654;-77
2022/12/11 12:13:14;;;;;;;0.10;0.10;;;6.00;99.90;;;;;;5028157;28;21036;-77
2022/12/11 12:15:53;;;;;;;0.10;0.10;;;6.40;99.90;;;;;;5027714;28;20219;-77
2022/12/11 12:18:40;;;;;;;0.10;0.10;;;5.60;99.90;;;;;;5028970;28;20452;-77
2022/12/11 12:21:33;;;;;;;0.10;0.10;;;6.70;99.90;;;;;;5024232;28;20604;-78
2022/12/11 12:24:28;;;;;;;0.10;0.10;;;5.40;99.90;;;;;;5039306;28;20457;-78
2022/12/11 12:27:19;;;;;;;0.10;0.10;;;5.50;99.90;;;;;;5026458;28;20965;-78
2022/12/11 12:29:59;;;;;;;0.10;0.10;;;5.10;99.90;;;;;;5028281;28;20450;-78
2022/12/11 12:32:31;;;;;;;0.10;0.10;;;4.50;99.90;;;;;;5027220;28;20446;-78
2022/12/11 12:35:14;;;;;;;0.10;0.10;;;4.30;99.90;;;;;;5022106;28;20477;-78
2022/12/11 12:37:56;;;;;;;0.20;0.20;;;5.00;99.90;;;;;;5024501;28;20449;-78
2022/12/11 12:40:31;;;;;;;0.20;0.20;;;5.40;99.90;;;;;;5026060;28;20430;-78
2022/12/11 12:43:15;;;;;;;0.20;0.20;;;5.50;99.90;;;;;;5023414;28;20442;-79
2022/12/11 12:46:04;;;;;;;0.20;0.20;;;5.20;99.90;;;;;;5020735;28;20723;-78
2022/12/11 12:48:31;;;;;;;0.20;0.20;;;4.80;99.90;;;;;;5021359;28;20528;-79
2022/12/11 12:50:57;;;;;;;0.20;0.20;;;5.40;99.90;;;;;;5029175;28;20537;-77
2022/12/11 12:53:26;;;;;;;0.20;0.20;;;5.90;99.90;;;;;;5028513;28;20521;-77
2022/12/11 12:55:52;;;;;;;0.13;0.13;;;5.50;99.90;;;;;;5027863;28;20489;-79
2022/12/11 12:58:29;;;;;;;0.20;0.20;;;5.20;99.90;;;;;;5028326;28;20438;-79
2022/12/11 13:01:15;;;;;;;0.20;0.20;;;5.30;99.90;;;;;;5023555;28;20446;-79
2022/12/11 13:04:02;;;;;;;0.20;0.20;;;4.40;99.90;;;;;;5027663;28;20453;-79
2022/12/11 13:06:42;;;;;;;0.20;0.20;;;4.80;99.90;;;;;;5012501;28;20517;-80
2022/12/11 13:09:28;;;;;;;0.20;0.20;;;4.80;99.90;;;;;;5017861;28;21145;-78
2022/12/11 13:11:59;;;;;;;0.20;0.20;;;5.00;99.90;;;;;;5022195;28;20453;-79
2022/12/11 13:14:29;;;;;;;0.20;0.20;;;5.50;99.90;;;;;;5021559;28;21158;-78
2022/12/11 13:17:25;;;;;;;0.20;0.20;;;4.60;99.90;;;;;;5027442;28;21218;-79